<?xml version="1.0" encoding="utf-8"?>
<gpx xmlns:xsi="http://www.w3.org/2001/XMLSchema-instance" xmlns:xsd="http://www.w3.org/2001/XMLSchema" version="1.1" creator="Shapelink.com" xmlns="http://www.topografix.com/GPX/1/1" xmlns:gpxtpx="http://www.garmin.com/xmlschemas/TrackPointExtension/v1">
  <metadata>
    <name>Løping 2.01 km, 2012-08-19</name>
    <desc></desc>
    <author><name>Mikael Blom</name></author> 
    <time>2012-08-19T21:09:41Z</time>
  </metadata>
  <trk>
    <name>Løping 2.01 km, 2012-08-19</name>
    <trkseg>
      <trkpt lat="59.9688896" lon="17.7172149">
        <ele>30.8995</ele>
        <time>2012-08-19T21:09:41Z</time>
      </trkpt>
      <trkpt lat="59.9690724" lon="17.7172819">
        <ele>32.3416</ele>
        <time>2012-08-19T21:09:47Z</time>
      </trkpt>
      <trkpt lat="59.9692145" lon="17.7173508">
        <ele>31.8607</ele>
        <time>2012-08-19T21:09:52Z</time>
      </trkpt>
      <trkpt lat="59.9693461" lon="17.7174219">
        <ele>30.8995</ele>
        <time>2012-08-19T21:09:57Z</time>
      </trkpt>
      <trkpt lat="59.9694834" lon="17.7174907">
        <ele>29.9381</ele>
        <time>2012-08-19T21:10:02Z</time>
      </trkpt>
      <trkpt lat="59.9696155" lon="17.7175865">
        <ele>30.8995</ele>
        <time>2012-08-19T21:10:07Z</time>
      </trkpt>
      <trkpt lat="59.969728" lon="17.7176843">
        <ele>31.3801</ele>
        <time>2012-08-19T21:10:12Z</time>
      </trkpt>
      <trkpt lat="59.9698349" lon="17.7177589">
        <ele>30.4188</ele>
        <time>2012-08-19T21:10:16Z</time>
      </trkpt>
      <trkpt lat="59.9699625" lon="17.7178642">
        <ele>28.9769</ele>
        <time>2012-08-19T21:10:21Z</time>
      </trkpt>
      <trkpt lat="59.9700999" lon="17.7179425">
        <ele>27.0543</ele>
        <time>2012-08-19T21:10:26Z</time>
      </trkpt>
      <trkpt lat="59.9702113" lon="17.7180495">
        <ele>25.1317</ele>
        <time>2012-08-19T21:10:31Z</time>
      </trkpt>
      <trkpt lat="59.9703289" lon="17.7181506">
        <ele>24.1703</ele>
        <time>2012-08-19T21:10:36Z</time>
      </trkpt>
      <trkpt lat="59.9704804" lon="17.7182792">
        <ele>24.1703</ele>
        <time>2012-08-19T21:10:42Z</time>
      </trkpt>
      <trkpt lat="59.9705132" lon="17.7182951">
        <ele>24.651</ele>
        <time>2012-08-19T21:10:43Z</time>
      </trkpt>
      <trkpt lat="59.9705718" lon="17.7183076">
        <ele>24.651</ele>
        <time>2012-08-19T21:10:45Z</time>
      </trkpt>
      <trkpt lat="59.9706671" lon="17.718405">
        <ele>24.651</ele>
        <time>2012-08-19T21:10:49Z</time>
      </trkpt>
      <trkpt lat="59.97078" lon="17.7185281">
        <ele>24.1703</ele>
        <time>2012-08-19T21:10:54Z</time>
      </trkpt>
      <trkpt lat="59.9708762" lon="17.7186282">
        <ele>23.6896</ele>
        <time>2012-08-19T21:10:58Z</time>
      </trkpt>
      <trkpt lat="59.9709753" lon="17.7187311">
        <ele>23.209</ele>
        <time>2012-08-19T21:11:02Z</time>
      </trkpt>
      <trkpt lat="59.9710417" lon="17.7187939">
        <ele>23.209</ele>
        <time>2012-08-19T21:11:05Z</time>
      </trkpt>
      <trkpt lat="59.9711291" lon="17.7188732">
        <ele>23.209</ele>
        <time>2012-08-19T21:11:09Z</time>
      </trkpt>
      <trkpt lat="59.9711582" lon="17.7188774">
        <ele>23.6896</ele>
        <time>2012-08-19T21:11:10Z</time>
      </trkpt>
      <trkpt lat="59.9712874" lon="17.7189784">
        <ele>23.6896</ele>
        <time>2012-08-19T21:11:16Z</time>
      </trkpt>
      <trkpt lat="59.9713944" lon="17.7190601">
        <ele>22.7283</ele>
        <time>2012-08-19T21:11:21Z</time>
      </trkpt>
      <trkpt lat="59.9715304" lon="17.7191726">
        <ele>22.2476</ele>
        <time>2012-08-19T21:11:27Z</time>
      </trkpt>
      <trkpt lat="59.9716355" lon="17.7192781">
        <ele>21.767</ele>
        <time>2012-08-19T21:11:32Z</time>
      </trkpt>
      <trkpt lat="59.971784" lon="17.719425">
        <ele>22.2476</ele>
        <time>2012-08-19T21:11:39Z</time>
      </trkpt>
      <trkpt lat="59.9718968" lon="17.7195262">
        <ele>21.767</ele>
        <time>2012-08-19T21:11:44Z</time>
      </trkpt>
      <trkpt lat="59.9719961" lon="17.7196425">
        <ele>21.2864</ele>
        <time>2012-08-19T21:11:49Z</time>
      </trkpt>
      <trkpt lat="59.9720936" lon="17.7197521">
        <ele>20.325</ele>
        <time>2012-08-19T21:11:54Z</time>
      </trkpt>
      <trkpt lat="59.9721776" lon="17.719826">
        <ele>20.8057</ele>
        <time>2012-08-19T21:11:58Z</time>
      </trkpt>
      <trkpt lat="59.9721982" lon="17.719837">
        <ele>20.8057</ele>
        <time>2012-08-19T21:11:59Z</time>
      </trkpt>
      <trkpt lat="59.9722867" lon="17.7199108">
        <ele>20.325</ele>
        <time>2012-08-19T21:12:03Z</time>
      </trkpt>
      <trkpt lat="59.9724418" lon="17.7200494">
        <ele>20.325</ele>
        <time>2012-08-19T21:12:10Z</time>
      </trkpt>
      <trkpt lat="59.9725331" lon="17.7201387">
        <ele>19.8444</ele>
        <time>2012-08-19T21:12:14Z</time>
      </trkpt>
      <trkpt lat="59.9726526" lon="17.7202367">
        <ele>19.8444</ele>
        <time>2012-08-19T21:12:19Z</time>
      </trkpt>
      <trkpt lat="59.9727054" lon="17.7202706">
        <ele>19.3638</ele>
        <time>2012-08-19T21:12:21Z</time>
      </trkpt>
      <trkpt lat="59.9728168" lon="17.7203561">
        <ele>21.2864</ele>
        <time>2012-08-19T21:12:25Z</time>
      </trkpt>
      <trkpt lat="59.9729739" lon="17.7205609">
        <ele>23.209</ele>
        <time>2012-08-19T21:12:32Z</time>
      </trkpt>
      <trkpt lat="59.9730582" lon="17.720667">
        <ele>23.6896</ele>
        <time>2012-08-19T21:12:36Z</time>
      </trkpt>
      <trkpt lat="59.9731353" lon="17.7208104">
        <ele>24.651</ele>
        <time>2012-08-19T21:12:40Z</time>
      </trkpt>
      <trkpt lat="59.9732144" lon="17.7209411">
        <ele>24.651</ele>
        <time>2012-08-19T21:12:44Z</time>
      </trkpt>
      <trkpt lat="59.973346" lon="17.7210903">
        <ele>25.6123</ele>
        <time>2012-08-19T21:12:50Z</time>
      </trkpt>
      <trkpt lat="59.9734338" lon="17.7212973">
        <ele>25.1317</ele>
        <time>2012-08-19T21:12:55Z</time>
      </trkpt>
      <trkpt lat="59.9735001" lon="17.7214574">
        <ele>24.1703</ele>
        <time>2012-08-19T21:12:59Z</time>
      </trkpt>
      <trkpt lat="59.9735793" lon="17.721676">
        <ele>21.2864</ele>
        <time>2012-08-19T21:13:04Z</time>
      </trkpt>
      <trkpt lat="59.9736409" lon="17.7218611">
        <ele>19.3638</ele>
        <time>2012-08-19T21:13:09Z</time>
      </trkpt>
      <trkpt lat="59.9736912" lon="17.7220128">
        <ele>17.9218</ele>
        <time>2012-08-19T21:13:13Z</time>
      </trkpt>
      <trkpt lat="59.9737539" lon="17.7221875">
        <ele>16.4797</ele>
        <time>2012-08-19T21:13:18Z</time>
      </trkpt>
      <trkpt lat="59.9738307" lon="17.7224117">
        <ele>16.9604</ele>
        <time>2012-08-19T21:13:24Z</time>
      </trkpt>
      <trkpt lat="59.9738928" lon="17.7226393">
        <ele>16.9604</ele>
        <time>2012-08-19T21:13:29Z</time>
      </trkpt>
      <trkpt lat="59.9739429" lon="17.7228224">
        <ele>16.9604</ele>
        <time>2012-08-19T21:13:33Z</time>
      </trkpt>
      <trkpt lat="59.9739889" lon="17.7229852">
        <ele>16.9604</ele>
        <time>2012-08-19T21:13:37Z</time>
      </trkpt>
      <trkpt lat="59.9740303" lon="17.7231877">
        <ele>16.4797</ele>
        <time>2012-08-19T21:13:41Z</time>
      </trkpt>
      <trkpt lat="59.9740731" lon="17.7234294">
        <ele>16.4797</ele>
        <time>2012-08-19T21:13:46Z</time>
      </trkpt>
      <trkpt lat="59.9741264" lon="17.7237214">
        <ele>18.4023</ele>
        <time>2012-08-19T21:13:52Z</time>
      </trkpt>
      <trkpt lat="59.9741532" lon="17.723899">
        <ele>18.4023</ele>
        <time>2012-08-19T21:13:55Z</time>
      </trkpt>
      <trkpt lat="59.9741831" lon="17.7241217">
        <ele>18.4023</ele>
        <time>2012-08-19T21:13:59Z</time>
      </trkpt>
      <trkpt lat="59.974217" lon="17.7243647">
        <ele>18.8831</ele>
        <time>2012-08-19T21:14:04Z</time>
      </trkpt>
      <trkpt lat="59.9742449" lon="17.7245812">
        <ele>18.4023</ele>
        <time>2012-08-19T21:14:08Z</time>
      </trkpt>
      <trkpt lat="59.9742715" lon="17.7247863">
        <ele>18.8831</ele>
        <time>2012-08-19T21:14:12Z</time>
      </trkpt>
      <trkpt lat="59.9743242" lon="17.7251014">
        <ele>19.8444</ele>
        <time>2012-08-19T21:14:19Z</time>
      </trkpt>
      <trkpt lat="59.9743557" lon="17.7253635">
        <ele>19.8444</ele>
        <time>2012-08-19T21:14:24Z</time>
      </trkpt>
      <trkpt lat="59.9743767" lon="17.7255636">
        <ele>19.8444</ele>
        <time>2012-08-19T21:14:28Z</time>
      </trkpt>
      <trkpt lat="59.9744103" lon="17.7257584">
        <ele>20.8057</ele>
        <time>2012-08-19T21:14:32Z</time>
      </trkpt>
      <trkpt lat="59.9744388" lon="17.7259642">
        <ele>23.6896</ele>
        <time>2012-08-19T21:14:36Z</time>
      </trkpt>
      <trkpt lat="59.9744584" lon="17.7262346">
        <ele>27.5349</ele>
        <time>2012-08-19T21:14:41Z</time>
      </trkpt>
      <trkpt lat="59.9744665" lon="17.7264296">
        <ele>28.9769</ele>
        <time>2012-08-19T21:14:45Z</time>
      </trkpt>
      <trkpt lat="59.9744727" lon="17.7266392">
        <ele>30.4188</ele>
        <time>2012-08-19T21:14:50Z</time>
      </trkpt>
      <trkpt lat="59.9744663" lon="17.726937">
        <ele>29.4575</ele>
        <time>2012-08-19T21:14:56Z</time>
      </trkpt>
      <trkpt lat="59.9744751" lon="17.7270187">
        <ele>29.4575</ele>
        <time>2012-08-19T21:14:58Z</time>
      </trkpt>
      <trkpt lat="59.9744815" lon="17.7273575">
        <ele>32.3416</ele>
        <time>2012-08-19T21:15:04Z</time>
      </trkpt>
      <trkpt lat="59.9744895" lon="17.7276456">
        <ele>33.3029</ele>
        <time>2012-08-19T21:15:09Z</time>
      </trkpt>
      <trkpt lat="59.9744873" lon="17.7278046">
        <ele>34.2642</ele>
        <time>2012-08-19T21:15:12Z</time>
      </trkpt>
      <trkpt lat="59.9744712" lon="17.7281917">
        <ele>33.3029</ele>
        <time>2012-08-19T21:15:19Z</time>
      </trkpt>
      <trkpt lat="59.97448" lon="17.7284652">
        <ele>34.2642</ele>
        <time>2012-08-19T21:15:24Z</time>
      </trkpt>
      <trkpt lat="59.9744873" lon="17.7287518">
        <ele>34.7449</ele>
        <time>2012-08-19T21:15:29Z</time>
      </trkpt>
      <trkpt lat="59.9745035" lon="17.7290179">
        <ele>33.7834</ele>
        <time>2012-08-19T21:15:34Z</time>
      </trkpt>
      <trkpt lat="59.974503" lon="17.7292821">
        <ele>34.2642</ele>
        <time>2012-08-19T21:15:39Z</time>
      </trkpt>
      <trkpt lat="59.9745018" lon="17.7295081">
        <ele>35.2255</ele>
        <time>2012-08-19T21:15:43Z</time>
      </trkpt>
      <trkpt lat="59.9744931" lon="17.7298525">
        <ele>37.6287</ele>
        <time>2012-08-19T21:15:49Z</time>
      </trkpt>
      <trkpt lat="59.9744802" lon="17.7301192">
        <ele>39.0707</ele>
        <time>2012-08-19T21:15:54Z</time>
      </trkpt>
      <trkpt lat="59.9744667" lon="17.7303777">
        <ele>40.0321</ele>
        <time>2012-08-19T21:15:59Z</time>
      </trkpt>
      <trkpt lat="59.9744641" lon="17.7306166">
        <ele>41.9547</ele>
        <time>2012-08-19T21:16:03Z</time>
      </trkpt>
      <trkpt lat="59.9744575" lon="17.7307925">
        <ele>42.4354</ele>
        <time>2012-08-19T21:16:06Z</time>
      </trkpt>
      <trkpt lat="59.9744434" lon="17.7309936">
        <ele>43.8773</ele>
        <time>2012-08-19T21:16:10Z</time>
      </trkpt>
      <trkpt lat="59.9744365" lon="17.7313294">
        <ele>46.7612</ele>
        <time>2012-08-19T21:16:16Z</time>
      </trkpt>
      <trkpt lat="59.9744242" lon="17.7314816">
        <ele>47.2418</ele>
        <time>2012-08-19T21:16:19Z</time>
      </trkpt>
      <trkpt lat="59.9744144" lon="17.7316972">
        <ele>47.2418</ele>
        <time>2012-08-19T21:16:23Z</time>
      </trkpt>
      <trkpt lat="59.9744169" lon="17.7318601">
        <ele>48.2034</ele>
        <time>2012-08-19T21:16:26Z</time>
      </trkpt>
      <trkpt lat="59.9744258" lon="17.7320709">
        <ele>50.6066</ele>
        <time>2012-08-19T21:16:30Z</time>
      </trkpt>
      <trkpt lat="59.974433" lon="17.7323026">
        <ele>49.6453</ele>
        <time>2012-08-19T21:16:34Z</time>
      </trkpt>
      <trkpt lat="59.9744304" lon="17.7325961">
        <ele>46.7612</ele>
        <time>2012-08-19T21:16:40Z</time>
      </trkpt>
      <trkpt lat="59.9744304" lon="17.7328655">
        <ele>48.2034</ele>
        <time>2012-08-19T21:16:46Z</time>
      </trkpt>
      <trkpt lat="59.9744232" lon="17.733188">
        <ele>48.2034</ele>
        <time>2012-08-19T21:16:52Z</time>
      </trkpt>
      <trkpt lat="59.9744122" lon="17.7334262">
        <ele>49.6453</ele>
        <time>2012-08-19T21:16:57Z</time>
      </trkpt>
      <trkpt lat="59.9744132" lon="17.7336236">
        <ele>51.0872</ele>
        <time>2012-08-19T21:17:01Z</time>
      </trkpt>
      <trkpt lat="59.9744106" lon="17.7337898">
        <ele>51.0872</ele>
        <time>2012-08-19T21:17:04Z</time>
      </trkpt>
      <trkpt lat="59.9744043" lon="17.7339792">
        <ele>51.0872</ele>
        <time>2012-08-19T21:17:08Z</time>
      </trkpt>
      <trkpt lat="59.9744017" lon="17.7340779">
        <ele>52.0486</ele>
        <time>2012-08-19T21:17:10Z</time>
      </trkpt>
      <trkpt lat="59.9743782" lon="17.7343323">
        <ele>52.0486</ele>
        <time>2012-08-19T21:17:16Z</time>
      </trkpt>
      <trkpt lat="59.9743719" lon="17.7345663">
        <ele>50.6066</ele>
        <time>2012-08-19T21:17:21Z</time>
      </trkpt>
      <trkpt lat="59.9743782" lon="17.7348298">
        <ele>48.2034</ele>
        <time>2012-08-19T21:17:26Z</time>
      </trkpt>
      <trkpt lat="59.9743884" lon="17.7350832">
        <ele>46.2806</ele>
        <time>2012-08-19T21:17:31Z</time>
      </trkpt>
      <trkpt lat="59.9743943" lon="17.7352693">
        <ele>44.358</ele>
        <time>2012-08-19T21:17:35Z</time>
      </trkpt>
      <trkpt lat="59.9743991" lon="17.7354505">
        <ele>43.3966</ele>
        <time>2012-08-19T21:17:39Z</time>
      </trkpt>
      <trkpt lat="59.974421" lon="17.7357075">
        <ele>42.916</ele>
        <time>2012-08-19T21:17:44Z</time>
      </trkpt>
      <trkpt lat="59.9744496" lon="17.7359049">
        <ele>44.358</ele>
        <time>2012-08-19T21:17:48Z</time>
      </trkpt>
      <trkpt lat="59.9744888" lon="17.7360508">
        <ele>45.7999</ele>
        <time>2012-08-19T21:17:52Z</time>
      </trkpt>
      <trkpt lat="59.9745462" lon="17.7363044">
        <ele>45.3192</ele>
        <time>2012-08-19T21:17:57Z</time>
      </trkpt>
      <trkpt lat="59.9746054" lon="17.7365175">
        <ele>46.7612</ele>
        <time>2012-08-19T21:18:02Z</time>
      </trkpt>
      <trkpt lat="59.9746504" lon="17.7366633">
        <ele>47.7225</ele>
        <time>2012-08-19T21:18:06Z</time>
      </trkpt>
      <trkpt lat="59.9747133" lon="17.7368088">
        <ele>49.1646</ele>
        <time>2012-08-19T21:18:10Z</time>
      </trkpt>
      <trkpt lat="59.9748019" lon="17.7369979">
        <ele>49.6453</ele>
        <time>2012-08-19T21:18:15Z</time>
      </trkpt>
      <trkpt lat="59.9748904" lon="17.7371434">
        <ele>51.0872</ele>
        <time>2012-08-19T21:18:20Z</time>
      </trkpt>
      <trkpt lat="59.9749654" lon="17.7373139">
        <ele>52.0486</ele>
        <time>2012-08-19T21:18:25Z</time>
      </trkpt>
      <trkpt lat="59.9750413" lon="17.7374896">
        <ele>52.0486</ele>
        <time>2012-08-19T21:18:29Z</time>
      </trkpt>
      <trkpt lat="59.9750817" lon="17.7375594">
        <ele>52.5292</ele>
        <time>2012-08-19T21:18:31Z</time>
      </trkpt>
      <trkpt lat="59.9751804" lon="17.7377584">
        <ele>53.0098</ele>
        <time>2012-08-19T21:18:36Z</time>
      </trkpt>
      <trkpt lat="59.9752379" lon="17.7378861">
        <ele>52.5292</ele>
        <time>2012-08-19T21:18:39Z</time>
      </trkpt>
      <trkpt lat="59.9753592" lon="17.7380544">
        <ele>49.6453</ele>
        <time>2012-08-19T21:18:45Z</time>
      </trkpt>
      <trkpt lat="59.975444" lon="17.7382399">
        <ele>47.2418</ele>
        <time>2012-08-19T21:18:50Z</time>
      </trkpt>
      <trkpt lat="59.9755106" lon="17.7383146">
        <ele>45.3192</ele>
        <time>2012-08-19T21:18:53Z</time>
      </trkpt>
      <trkpt lat="59.9756353" lon="17.7385441">
        <ele>41.474</ele>
        <time>2012-08-19T21:19:00Z</time>
      </trkpt>
      <trkpt lat="59.9757249" lon="17.7386768">
        <ele>40.0321</ele>
        <time>2012-08-19T21:19:05Z</time>
      </trkpt>
      <trkpt lat="59.9757419" lon="17.7387105">
        <ele>39.5513</ele>
        <time>2012-08-19T21:19:06Z</time>
      </trkpt>
      <trkpt lat="59.9757672" lon="17.7388369">
        <ele>39.0707</ele>
        <time>2012-08-19T21:19:08Z</time>
      </trkpt>
      <trkpt lat="59.9758113" lon="17.7388898">
        <ele>37.6287</ele>
        <time>2012-08-19T21:19:10Z</time>
      </trkpt>
      <trkpt lat="59.9759321" lon="17.7390552">
        <ele>37.6287</ele>
        <time>2012-08-19T21:19:16Z</time>
      </trkpt>
      <trkpt lat="59.9760623" lon="17.7391845">
        <ele>35.7061</ele>
        <time>2012-08-19T21:19:22Z</time>
      </trkpt>
      <trkpt lat="59.9761698" lon="17.7393114">
        <ele>34.7449</ele>
        <time>2012-08-19T21:19:28Z</time>
      </trkpt>
      <trkpt lat="59.9762595" lon="17.7395398">
        <ele>34.2642</ele>
        <time>2012-08-19T21:19:34Z</time>
      </trkpt>
      <trkpt lat="59.9763472" lon="17.739681">
        <ele>31.8607</ele>
        <time>2012-08-19T21:19:40Z</time>
      </trkpt>
      <trkpt lat="59.9764009" lon="17.7396994">
        <ele>30.4188</ele>
        <time>2012-08-19T21:19:43Z</time>
      </trkpt>
      <trkpt lat="59.9765106" lon="17.7395372">
        <ele>26.0929</ele>
        <time>2012-08-19T21:19:49Z</time>
      </trkpt>
      <trkpt lat="59.9766028" lon="17.7393824">
        <ele>26.0929</ele>
        <time>2012-08-19T21:19:54Z</time>
      </trkpt>
      <trkpt lat="59.9766832" lon="17.7393077">
        <ele>27.5349</ele>
        <time>2012-08-19T21:19:58Z</time>
      </trkpt>
      <trkpt lat="59.9768094" lon="17.7392632">
        <ele>29.4575</ele>
        <time>2012-08-19T21:20:03Z</time>
      </trkpt>
      <trkpt lat="59.9769255" lon="17.7392335">
        <ele>31.3801</ele>
        <time>2012-08-19T21:20:08Z</time>
      </trkpt>
      <trkpt lat="59.9770096" lon="17.7391839">
        <ele>32.8223</ele>
        <time>2012-08-19T21:20:12Z</time>
      </trkpt>
      <trkpt lat="59.9771152" lon="17.7391331">
        <ele>35.7061</ele>
        <time>2012-08-19T21:20:17Z</time>
      </trkpt>
      <trkpt lat="59.9772598" lon="17.7390471">
        <ele>37.6287</ele>
        <time>2012-08-19T21:20:23Z</time>
      </trkpt>
      <trkpt lat="59.9773508" lon="17.7390226">
        <ele>37.6287</ele>
        <time>2012-08-19T21:20:27Z</time>
      </trkpt>
      <trkpt lat="59.9774981" lon="17.7389822">
        <ele>38.5901</ele>
        <time>2012-08-19T21:20:33Z</time>
      </trkpt>
      <trkpt lat="59.9775966" lon="17.7389547">
        <ele>39.5513</ele>
        <time>2012-08-19T21:20:37Z</time>
      </trkpt>
      <trkpt lat="59.9777493" lon="17.7389813">
        <ele>39.5513</ele>
        <time>2012-08-19T21:20:43Z</time>
      </trkpt>
      <trkpt lat="59.9778416" lon="17.7390226">
        <ele>38.5901</ele>
        <time>2012-08-19T21:20:47Z</time>
      </trkpt>
      <trkpt lat="59.9779824" lon="17.7391021">
        <ele>37.6287</ele>
        <time>2012-08-19T21:20:53Z</time>
      </trkpt>
      <trkpt lat="59.9780814" lon="17.7391597">
        <ele>37.1481</ele>
        <time>2012-08-19T21:20:57Z</time>
      </trkpt>
      <trkpt lat="59.9781021" lon="17.7391733">
        <ele>36.6675</ele>
        <time>2012-08-19T21:20:58Z</time>
      </trkpt>
      <trkpt lat="59.9781891" lon="17.7392163">
        <ele>35.2255</ele>
        <time>2012-08-19T21:21:03Z</time>
      </trkpt>
      <trkpt lat="59.9782301" lon="17.7392148">
        <ele>34.2642</ele>
        <time>2012-08-19T21:21:05Z</time>
      </trkpt>
      <trkpt lat="59.9783766" lon="17.7392392">
        <ele>34.2642</ele>
        <time>2012-08-19T21:21:11Z</time>
      </trkpt>
      <trkpt lat="59.978513" lon="17.7392771">
        <ele>34.2642</ele>
        <time>2012-08-19T21:21:16Z</time>
      </trkpt>
      <trkpt lat="59.9785418" lon="17.7392881">
        <ele>34.2642</ele>
        <time>2012-08-19T21:21:17Z</time>
      </trkpt>
      <trkpt lat="59.9786957" lon="17.739303">
        <ele>31.3801</ele>
        <time>2012-08-19T21:21:23Z</time>
      </trkpt>
      <trkpt lat="59.9787228" lon="17.7393077">
        <ele>30.8995</ele>
        <time>2012-08-19T21:21:24Z</time>
      </trkpt>
      <trkpt lat="59.9788836" lon="17.739364">
        <ele>28.9769</ele>
        <time>2012-08-19T21:21:30Z</time>
      </trkpt>
      <trkpt lat="59.9789229" lon="17.7394696">
        <ele>29.9381</ele>
        <time>2012-08-19T21:21:33Z</time>
      </trkpt>
    </trkseg>
  </trk>
</gpx>